createdAt,value
2023-04-22T00:01:55.858Z,100525.31
2023-04-22T00:04:22.568Z,100522.19
2023-04-22T00:06:49.256Z,100528.53
2023-04-22T00:09:15.826Z,100529.34
2023-04-22T00:11:42.270Z,100527.00
2023-04-22T00:14:08.714Z,100521.47
2023-04-22T00:16:35.294Z,100511.19
2023-04-22T00:19:01.800Z,100505.66
2023-04-22T00:21:28.584Z,100510.03
2023-04-22T00:23:55.079Z,100495.41
2023-04-22T00:26:21.554Z,100492.63
2023-04-22T00:28:48.036Z,100500.56
2023-04-22T00:31:14.479Z,100504.13
2023-04-22T00:33:41.052Z,100502.56
2023-04-22T00:36:07.797Z,100499.78
2023-04-22T00:38:34.260Z,100493.91
2023-04-22T00:41:00.824Z,100488.41
2023-04-22T00:43:27.269Z,100493.53
2023-04-22T00:45:53.866Z,100488.78
2023-04-22T00:48:20.896Z,100489.97
2023-04-22T00:50:47.405Z,100490.38
2023-04-22T00:53:13.868Z,100489.22
2023-04-22T00:55:40.432Z,100493.13
2023-04-22T00:58:06.978Z,100493.16
2023-04-22T01:00:33.414Z,100491.19
2023-04-22T01:03:00.234Z,100487.63
2023-04-22T01:05:28.976Z,100484.88
2023-04-22T01:07:55.474Z,100488.41
2023-04-22T01:10:22.028Z,100486.47
2023-04-22T01:12:48.510Z,100492.00
2023-04-22T01:15:14.989Z,100495.91
2023-04-22T01:17:41.613Z,100484.50
2023-04-22T01:20:10.575Z,100490.38
2023-04-22T01:22:41.826Z,100490.78
2023-04-22T01:25:12.347Z,100490.00
2023-04-22T01:27:39.653Z,100486.06
2023-04-22T01:30:07.658Z,100480.13
2023-04-22T01:32:34.293Z,100480.53
2023-04-22T01:35:00.829Z,100473.06
2023-04-22T01:37:28.670Z,100483.69
2023-04-22T01:39:55.595Z,100484.50
2023-04-22T01:42:22.319Z,100490.00
2023-04-22T01:44:48.757Z,100492.38
2023-04-22T01:47:15.288Z,100486.84
2023-04-22T01:49:42.380Z,100496.72
2023-04-22T01:52:09.012Z,100491.59
2023-04-22T01:54:35.772Z,100494.34
2023-04-22T01:57:10.016Z,100489.59
2023-04-22T01:59:36.623Z,100490.75
2023-04-22T02:02:03.220Z,100489.59
2023-04-22T02:04:29.723Z,100486.44
2023-04-22T02:06:56.228Z,100495.53
2023-04-22T02:09:22.686Z,100487.63
2023-04-22T02:11:49.107Z,100487.63
2023-04-22T02:14:15.575Z,100486.03
2023-04-22T02:16:42.435Z,100480.50
2023-04-22T02:19:08.936Z,100489.22
2023-04-22T02:21:35.542Z,100483.28
2023-04-22T02:24:02.020Z,100484.47
2023-04-22T02:26:28.684Z,100476.53
2023-04-22T02:28:55.111Z,100485.25
2023-04-22T02:31:21.618Z,100479.72
2023-04-22T02:33:48.065Z,100491.56
2023-04-22T02:36:14.515Z,100486.03
2023-04-22T02:38:40.963Z,100478.16
2023-04-22T02:41:07.478Z,100475.38
2023-04-22T02:43:33.929Z,100473.41
2023-04-22T02:46:00.392Z,100477.34
2023-04-22T02:48:26.852Z,100469.84
2023-04-22T02:50:53.358Z,100468.66
2023-04-22T02:53:19.785Z,100475.00
2023-04-22T02:55:46.249Z,100467.88
2023-04-22T02:58:12.741Z,100456.44
2023-04-22T03:00:39.297Z,100461.56
2023-04-22T03:03:05.971Z,100457.59
2023-04-22T03:05:32.486Z,100457.59
2023-04-22T03:07:58.912Z,100448.91
2023-04-22T03:10:25.330Z,100449.72
2023-04-22T03:12:51.781Z,100442.19
2023-04-22T03:15:21.219Z,100440.22
2023-04-22T03:17:48.281Z,100439.81
2023-04-22T03:20:15.137Z,100448.88
2023-04-22T03:22:41.680Z,100444.56
2023-04-22T03:25:08.558Z,100442.97
2023-04-22T03:27:35.014Z,100439.81
2023-04-22T03:30:01.577Z,100439.81
2023-04-22T03:32:28.092Z,100433.13
2023-04-22T03:34:54.550Z,100432.31
2023-04-22T03:37:21.017Z,100429.16
2023-04-22T03:39:47.476Z,100434.72
2023-04-22T03:42:14.629Z,100425.63
2023-04-22T03:44:41.396Z,100441.00
2023-04-22T03:47:07.860Z,100424.84
2023-04-22T03:49:34.856Z,100432.31
2023-04-22T03:52:01.410Z,100423.63
2023-04-22T03:54:27.931Z,100426.41
2023-04-22T03:56:54.398Z,100427.19
2023-04-22T03:59:21.128Z,100420.47
2023-04-22T04:01:47.651Z,100422.06
2023-04-22T04:04:14.220Z,100414.94
2023-04-22T04:06:41.017Z,100415.34
2023-04-22T04:09:07.528Z,100416.53
2023-04-22T04:11:34.005Z,100414.94
2023-04-22T04:14:00.443Z,100416.53
2023-04-22T04:16:26.982Z,100411.78
2023-04-22T04:18:53.481Z,100411.78
2023-04-22T04:21:19.915Z,100409.41
2023-04-22T04:23:47.210Z,100408.63
2023-04-22T04:26:15.075Z,100414.53
2023-04-22T04:28:42.123Z,100397.94
2023-04-22T04:31:08.680Z,100407.81
2023-04-22T04:33:36.945Z,100404.25
2023-04-22T04:36:03.500Z,100400.72
2023-04-22T04:38:30.203Z,100392.78
2023-04-22T04:40:56.665Z,100392.38
2023-04-22T04:43:25.788Z,100388.06
2023-04-22T04:45:52.725Z,100388.84
2023-04-22T04:48:19.943Z,100390.41
2023-04-22T04:50:47.164Z,100394.00
2023-04-22T04:53:13.737Z,100386.47
2023-04-22T04:55:40.245Z,100392.75
2023-04-22T04:58:06.998Z,100391.19
2023-04-22T05:00:33.437Z,100381.69
2023-04-22T05:03:00.043Z,100399.44
2023-04-22T05:05:26.714Z,100386.78
2023-04-22T05:07:53.850Z,100395.06
2023-04-22T05:10:21.352Z,100393.06
2023-04-22T05:12:47.909Z,100395.81
2023-04-22T05:15:15.269Z,100390.66
2023-04-22T05:17:41.817Z,100392.22
2023-04-22T05:20:08.678Z,100398.50
2023-04-22T05:22:36.622Z,100392.56
2023-04-22T05:25:04.526Z,100394.16
2023-04-22T05:27:31.170Z,100394.53
2023-04-22T05:29:57.600Z,100383.88
2023-04-22T05:32:24.244Z,100387.00
2023-04-22T05:34:50.874Z,100384.59
2023-04-22T05:37:17.312Z,100386.53
2023-04-22T05:39:43.778Z,100385.38
2023-04-22T05:42:10.250Z,100378.22
2023-04-22T05:44:36.713Z,100377.78
2023-04-22T05:47:03.332Z,100380.53
2023-04-22T05:49:29.767Z,100379.72
2023-04-22T05:51:56.231Z,100380.47
2023-04-22T05:54:22.686Z,100370.97
2023-04-22T05:56:49.263Z,100377.66
2023-04-22T05:59:15.996Z,100381.56
2023-04-22T06:01:42.818Z,100374.81
2023-04-22T06:04:10.165Z,100382.25
2023-04-22T06:06:37.201Z,100378.66
2023-04-22T06:09:03.863Z,100390.88
2023-04-22T06:11:30.410Z,100393.19
2023-04-22T06:13:56.926Z,100388.00
2023-04-22T06:16:23.554Z,100386.38
2023-04-22T06:18:50.025Z,100382.38
2023-04-22T06:21:16.666Z,100382.66
2023-04-22T06:23:43.373Z,100387.38
2023-04-22T06:26:10.001Z,100387.72
2023-04-22T06:28:36.469Z,100390.41
2023-04-22T06:31:02.977Z,100391.88
2023-04-22T06:33:29.431Z,100387.88
2023-04-22T06:35:55.863Z,100388.59
2023-04-22T06:38:22.380Z,100392.84
2023-04-22T06:40:48.888Z,100390.78
2023-04-22T06:43:15.486Z,100385.13
2023-04-22T06:45:42.484Z,100380.69
2023-04-22T06:48:08.941Z,100376.19
2023-04-22T06:50:36.016Z,100370.56
2023-04-22T06:53:02.458Z,100366.50
2023-04-22T06:55:29.069Z,100370.72
2023-04-22T06:57:56.175Z,100377.38
2023-04-22T07:00:22.784Z,100372.44
2023-04-22T07:02:49.337Z,100377.50
2023-04-22T07:05:16.326Z,100382.53
2023-04-22T07:07:42.889Z,100380.84
2023-04-22T07:10:10.818Z,100371.69
2023-04-22T07:12:37.306Z,100372.75
2023-04-22T07:15:04.046Z,100363.09
2023-04-22T07:17:30.648Z,100369.22
2023-04-22T07:19:57.157Z,100359.81
2023-04-22T07:22:23.654Z,100373.81
2023-04-22T07:24:50.142Z,100370.75
2023-04-22T07:27:17.280Z,100370.84
2023-04-22T07:29:43.796Z,100371.69
2023-04-22T07:32:10.791Z,100357.47
2023-04-22T07:34:37.341Z,100363.47
2023-04-22T07:37:05.001Z,100359.88
2023-04-22T07:39:31.606Z,100359.09
2023-04-22T07:41:58.592Z,100352.75
2023-04-22T07:44:25.199Z,100341.19
2023-04-22T07:46:51.835Z,100341.69
2023-04-22T07:49:18.417Z,100351.41
2023-04-22T07:51:45.531Z,100339.03
2023-04-22T07:54:12.351Z,100349.13
2023-04-22T07:56:38.886Z,100341.03
2023-04-22T07:59:05.987Z,100343.50
2023-04-22T08:01:32.626Z,100334.94
2023-04-22T08:03:59.426Z,100327.84
2023-04-22T08:06:27.978Z,100333.22
2023-04-22T08:08:54.572Z,100322.34
2023-04-22T08:11:21.198Z,100322.00
2023-04-22T08:13:47.714Z,100330.69
2023-04-22T08:16:14.357Z,100327.09
2023-04-22T08:18:41.100Z,100328.34
2023-04-22T08:21:07.688Z,100317.47
2023-04-22T08:23:34.289Z,100310.34
2023-04-22T08:26:00.817Z,100316.84
2023-04-22T08:28:27.323Z,100316.81
2023-04-22T08:30:53.956Z,100312.84
2023-04-22T08:33:20.498Z,100315.56
2023-04-22T08:35:47.924Z,100319.81
2023-04-22T08:38:14.421Z,100304.84
2023-04-22T08:40:42.384Z,100311.44
2023-04-22T08:43:09.665Z,100309.44
2023-04-22T08:45:39.490Z,100307.00
2023-04-22T08:48:08.663Z,100306.28
2023-04-22T08:50:37.495Z,100295.84
2023-04-22T08:53:04.077Z,100296.78
2023-04-22T08:55:31.413Z,100296.66
2023-04-22T08:58:01.086Z,100290.75
2023-04-22T09:00:27.782Z,100280.34
2023-04-22T09:02:55.192Z,100277.38
2023-04-22T09:05:24.771Z,100280.03
2023-04-22T09:07:52.865Z,100272.16
2023-04-22T09:10:19.975Z,100276.69
2023-04-22T09:12:48.587Z,100286.19
2023-04-22T09:15:15.178Z,100273.84
2023-04-22T09:17:43.306Z,100274.16
2023-04-22T09:20:10.478Z,100265.72
2023-04-22T09:22:42.686Z,100258.84
2023-04-22T09:25:20.527Z,100253.53
2023-04-22T09:27:51.049Z,100254.56
2023-04-22T09:30:22.699Z,100262.44
2023-04-22T09:32:54.671Z,100256.66
2023-04-22T09:35:31.042Z,100255.00
2023-04-22T09:37:59.075Z,100261.41
2023-04-22T09:40:26.841Z,100259.97
2023-04-22T09:42:58.553Z,100255.44
2023-04-22T09:45:35.868Z,100244.31
2023-04-22T09:48:14.259Z,100255.72
2023-04-22T09:50:44.550Z,100246.84
2023-04-22T09:53:14.320Z,100261.00
2023-04-22T09:55:44.651Z,100254.72
2023-04-22T09:58:14.062Z,100245.06
2023-04-22T10:00:44.904Z,100249.31
2023-04-22T10:03:11.685Z,100237.69
2023-04-22T10:05:38.939Z,100239.81
2023-04-22T10:08:06.890Z,100245.94
2023-04-22T10:10:34.361Z,100233.69
2023-04-22T10:13:01.600Z,100235.13
2023-04-22T10:15:33.394Z,100236.09
2023-04-22T10:18:00.909Z,100244.88
2023-04-22T10:20:30.098Z,100226.78
2023-04-22T10:22:56.899Z,100247.03
2023-04-22T10:25:25.783Z,100221.78
2023-04-22T10:28:05.963Z,100232.34
2023-04-22T10:30:35.258Z,100214.44
2023-04-22T10:33:20.682Z,100224.00
2023-04-22T10:36:10.418Z,100229.56
2023-04-22T10:38:37.981Z,100220.41
2023-04-22T10:41:04.832Z,100219.34
2023-04-22T10:43:45.562Z,100223.63
2023-04-22T10:46:37.609Z,100217.91
2023-04-22T10:49:11.971Z,100209.16
2023-04-22T10:51:46.234Z,100205.72
2023-04-22T10:54:31.545Z,100206.78
2023-04-22T10:57:09.652Z,100210.66
2023-04-22T10:59:53.016Z,100219.22
2023-04-22T11:02:21.552Z,100217.00
2023-04-22T11:04:48.981Z,100201.94
2023-04-22T11:07:20.378Z,100213.53
2023-04-22T11:09:50.929Z,100205.00
2023-04-22T11:12:36.006Z,100198.00
2023-04-22T11:15:09.067Z,100193.41
2023-04-22T11:17:37.482Z,100205.84
2023-04-22T11:20:05.959Z,100198.66
2023-04-22T11:22:36.944Z,100199.00
2023-04-22T11:25:05.479Z,100176.81
2023-04-22T11:27:32.853Z,100187.06
2023-04-22T11:30:04.595Z,100219.06
2023-04-22T11:32:32.158Z,100188.50
2023-04-22T11:34:58.689Z,100214.72
2023-04-22T11:37:25.371Z,100205.13
2023-04-22T11:40:13.796Z,100209.63
2023-04-22T11:42:39.705Z,100221.41
2023-04-22T11:45:08.102Z,100216.56
2023-04-22T11:47:35.601Z,100219.19
2023-04-22T11:50:07.121Z,100228.38
2023-04-22T11:52:52.173Z,100222.50
2023-04-22T11:55:30.110Z,100210.09
2023-04-22T11:57:57.956Z,100205.78
2023-04-22T12:00:29.716Z,100220.75
2023-04-22T12:02:58.909Z,100207.97
2023-04-22T12:05:44.055Z,100212.91
2023-04-22T12:08:13.692Z,100213.03
2023-04-22T12:10:41.876Z,100203.38
2023-04-22T12:13:09.158Z,100215.06
2023-04-22T12:15:43.113Z,100207.19
2023-04-22T12:18:12.201Z,100200.84
2023-04-22T12:20:42.553Z,100201.81
2023-04-22T12:23:14.382Z,100205.50
2023-04-22T12:25:41.803Z,100204.81
2023-04-22T12:28:08.819Z,100199.59
2023-04-22T12:30:35.454Z,100194.78
2023-04-22T12:33:02.208Z,100203.38
2023-04-22T12:35:28.698Z,100198.56
2023-04-22T12:37:55.239Z,100189.69
2023-04-22T12:40:21.831Z,100196.66
2023-04-22T12:42:48.313Z,100187.72
2023-04-22T12:45:16.153Z,100196.19
2023-04-22T12:47:43.026Z,100184.56
2023-04-22T12:50:09.728Z,100193.38
2023-04-22T12:52:36.366Z,100191.13
2023-04-22T12:55:02.895Z,100199.75
2023-04-22T12:57:29.431Z,100205.38
2023-04-22T12:59:56.593Z,100210.72
2023-04-22T13:02:23.297Z,100196.81
2023-04-22T13:04:49.830Z,100206.69
2023-04-22T13:07:17.473Z,100201.91
2023-04-22T13:09:44.354Z,100192.06
2023-04-22T13:12:11.236Z,100189.78
2023-04-22T13:14:37.819Z,100190.56
2023-04-22T13:17:04.469Z,100185.53
2023-04-22T13:19:31.860Z,100185.94
2023-04-22T13:21:58.465Z,100177.56
2023-04-22T13:24:25.024Z,100173.19
2023-04-22T13:26:51.600Z,100185.84
2023-04-22T13:29:18.285Z,100182.91
2023-04-22T13:31:44.908Z,100180.75
2023-04-22T13:34:11.952Z,100187.38
2023-04-22T13:36:38.472Z,100165.06
2023-04-22T13:39:05.837Z,100169.06
2023-04-22T13:41:32.352Z,100178.53
2023-04-22T13:43:59.660Z,100167.03
2023-04-22T13:46:27.232Z,100161.81
2023-04-22T13:48:54.755Z,100164.25
2023-04-22T13:51:21.219Z,100158.56
2023-04-22T13:53:47.721Z,100169.16
2023-04-22T13:56:14.519Z,100171.88
2023-04-22T13:58:42.438Z,100168.25
2023-04-22T14:01:09.329Z,100172.09
2023-04-22T14:03:36.550Z,100165.72
2023-04-22T14:06:03.846Z,100169.56
2023-04-22T14:08:30.637Z,100179.56
2023-04-22T14:10:59.276Z,100169.94
2023-04-22T14:13:29.858Z,100170.25
2023-04-22T14:15:56.566Z,100167.13
2023-04-22T14:18:23.382Z,100173.00
2023-04-22T14:20:51.326Z,100180.13
2023-04-22T14:23:19.153Z,100177.88
2023-04-22T14:25:47.149Z,100187.53
2023-04-22T14:28:15.190Z,100191.19
2023-04-22T14:30:42.811Z,100204.31
2023-04-22T14:33:09.591Z,100213.97
2023-04-22T14:35:37.246Z,100201.16
2023-04-22T14:38:07.141Z,100203.69
2023-04-22T14:40:33.880Z,100212.03
2023-04-22T14:43:02.623Z,100228.63
2023-04-22T14:45:30.724Z,100234.00
2023-04-22T14:47:58.066Z,100227.25
2023-04-22T14:50:25.620Z,100241.94
2023-04-22T14:52:53.434Z,100232.88
2023-04-22T14:55:23.809Z,100243.78
2023-04-22T14:57:53.538Z,100236.72
2023-04-22T15:00:20.096Z,100240.63
2023-04-22T15:02:47.046Z,100237.06
2023-04-22T15:05:13.717Z,100241.00
2023-04-22T15:07:40.372Z,100235.47
2023-04-22T15:10:08.027Z,100235.81
2023-04-22T15:12:34.618Z,100245.91
2023-04-22T15:15:01.262Z,100236.00
2023-04-22T15:17:29.019Z,100244.00
2023-04-22T15:19:57.674Z,100237.59
2023-04-22T15:22:25.300Z,100245.28
2023-04-22T15:24:51.919Z,100237.00
2023-04-22T15:27:18.566Z,100245.16
2023-04-22T15:29:46.475Z,100238.84
2023-04-22T15:32:13.043Z,100239.63
2023-04-22T15:34:39.987Z,100234.53
2023-04-22T15:37:07.898Z,100240.16
2023-04-22T15:39:41.689Z,100243.44
2023-04-22T15:42:08.477Z,100233.91
2023-04-22T15:44:34.956Z,100230.31
2023-04-22T15:47:01.548Z,100231.25
2023-04-22T15:49:28.097Z,100228.63
2023-04-22T15:51:54.646Z,100235.19
2023-04-22T15:54:21.113Z,100232.97
2023-04-22T15:56:47.663Z,100224.72
2023-04-22T15:59:14.201Z,100221.09
2023-04-22T16:01:40.963Z,100215.50
2023-04-22T16:04:07.873Z,100218.78
2023-04-22T16:06:35.629Z,100212.22
2023-04-22T16:09:02.115Z,100211.41
2023-04-22T16:11:28.565Z,100216.59
2023-04-22T16:13:55.011Z,100224.56
2023-04-22T16:16:21.776Z,100214.69
2023-04-22T16:18:48.549Z,100211.13
2023-04-22T16:21:15.116Z,100216.41
2023-04-22T16:23:41.652Z,100214.84
2023-04-22T16:26:08.206Z,100223.59
2023-04-22T16:28:34.658Z,100219.56
2023-04-22T16:31:01.257Z,100219.88
2023-04-22T16:33:28.038Z,100221.91
2023-04-22T16:35:54.495Z,100221.16
2023-04-22T16:38:21.073Z,100223.00
2023-04-22T16:40:47.581Z,100227.72
2023-04-22T16:43:14.069Z,100224.75
2023-04-22T16:45:40.708Z,100212.75
2023-04-22T16:48:07.259Z,100224.63
2023-04-22T16:50:33.804Z,100218.41
2023-04-22T16:53:00.274Z,100218.72
2023-04-22T16:55:26.775Z,100226.22
2023-04-22T16:57:53.316Z,100233.59
2023-04-22T17:00:20.849Z,100236.69
2023-04-22T17:02:47.392Z,100239.94
2023-04-22T17:05:13.963Z,100248.97
2023-04-22T17:07:41.531Z,100233.66
2023-04-22T17:10:08.655Z,100259.31
2023-04-22T17:12:35.213Z,100254.50
2023-04-22T17:15:01.753Z,100259.22
2023-04-22T17:17:28.506Z,100266.38
2023-04-22T17:19:55.131Z,100266.00
2023-04-22T17:22:23.441Z,100270.34
2023-04-22T17:24:50.249Z,100268.47
2023-04-22T17:27:16.809Z,100278.03
2023-04-22T17:29:43.367Z,100274.41
2023-04-22T17:32:09.967Z,100273.88
2023-04-22T17:34:36.546Z,100276.06
2023-04-22T17:37:03.154Z,100277.00
2023-04-22T17:39:29.728Z,100278.03
2023-04-22T17:41:58.288Z,100278.28
2023-04-22T17:44:25.696Z,100280.06
2023-04-22T17:46:52.539Z,100277.84
2023-04-22T17:49:18.988Z,100277.72
2023-04-22T17:51:45.652Z,100280.38
2023-04-22T17:54:12.206Z,100277.25
2023-04-22T17:56:38.997Z,100286.09
2023-04-22T17:59:05.610Z,100279.94
2023-04-22T18:01:32.371Z,100285.06
2023-04-22T18:03:59.407Z,100288.53
2023-04-22T18:06:26.081Z,100283.84
2023-04-22T18:08:52.636Z,100291.97
2023-04-22T18:11:19.364Z,100296.09
2023-04-22T18:13:45.864Z,100299.25
2023-04-22T18:16:12.360Z,100295.56
2023-04-22T18:18:38.914Z,100296.97
2023-04-22T18:21:05.630Z,100298.88
2023-04-22T18:23:32.165Z,100303.34
2023-04-22T18:25:58.628Z,100307.94
2023-04-22T18:28:25.130Z,100312.84
2023-04-22T18:30:52.171Z,100321.66
2023-04-22T18:33:18.746Z,100309.44
2023-04-22T18:35:45.232Z,100319.53
2023-04-22T18:38:11.774Z,100314.97
2023-04-22T18:40:38.351Z,100319.00
2023-04-22T18:43:04.827Z,100311.59
2023-04-22T18:45:31.259Z,100320.19
2023-04-22T18:47:58.902Z,100315.53
2023-04-22T18:50:25.572Z,100322.88
2023-04-22T18:52:52.797Z,100324.13
2023-04-22T18:55:19.441Z,100324.56
2023-04-22T18:57:46.239Z,100318.19
2023-04-22T19:00:13.339Z,100326.56
2023-04-22T19:02:42.277Z,100324.34
2023-04-22T19:05:10.016Z,100330.81
2023-04-22T19:07:37.232Z,100319.66
2023-04-22T19:10:04.076Z,100326.91
2023-04-22T19:12:30.524Z,100330.25
2023-04-22T19:14:59.640Z,100329.47
2023-04-22T19:17:26.931Z,100333.47
2023-04-22T19:19:53.458Z,100332.50
2023-04-22T19:22:21.018Z,100340.16
2023-04-22T19:24:48.176Z,100336.94
2023-04-22T19:27:14.900Z,100329.47
2023-04-22T19:29:42.864Z,100326.47
2023-04-22T19:32:11.502Z,100331.63
2023-04-22T19:34:38.639Z,100327.16
2023-04-22T19:37:05.274Z,100329.34
2023-04-22T19:39:31.831Z,100333.38
2023-04-22T19:41:58.642Z,100335.16
2023-04-22T19:44:25.509Z,100327.34
2023-04-22T19:46:52.906Z,100340.06
2023-04-22T19:49:19.968Z,100355.78
2023-04-22T19:51:46.746Z,100364.69
2023-04-22T19:54:13.574Z,100357.91
2023-04-22T19:56:41.389Z,100345.59
2023-04-22T19:59:08.611Z,100349.59
2023-04-22T20:01:39.773Z,100359.78
2023-04-22T20:04:06.730Z,100357.28
2023-04-22T20:06:33.844Z,100361.75
2023-04-22T20:09:05.888Z,100357.47
2023-04-22T20:11:32.893Z,100356.84
2023-04-22T20:14:03.326Z,100351.03
2023-04-22T20:16:30.892Z,100358.25
2023-04-22T20:18:58.400Z,100351.81
2023-04-22T20:21:31.883Z,100347.19
2023-04-22T20:24:01.088Z,100362.50
2023-04-22T20:26:28.266Z,100364.75
2023-04-22T20:28:55.013Z,100369.63
2023-04-22T20:31:23.449Z,100371.47
2023-04-22T20:33:51.065Z,100367.72
2023-04-22T20:36:18.804Z,100370.66
2023-04-22T20:38:48.825Z,100362.06
2023-04-22T20:41:18.825Z,100367.47
2023-04-22T20:43:49.585Z,100365.53
2023-04-22T20:46:22.694Z,100370.03
2023-04-22T20:48:50.323Z,100371.97
2023-04-22T20:51:16.812Z,100377.28
2023-04-22T20:53:44.089Z,100379.28
2023-04-22T20:56:10.532Z,100376.94
2023-04-22T20:58:37.075Z,100381.00
2023-04-22T21:01:10.281Z,100380.59
2023-04-22T21:03:39.631Z,100383.09
2023-04-22T21:06:06.827Z,100391.59
2023-04-22T21:08:34.778Z,100391.50
2023-04-22T21:11:01.474Z,100397.50
2023-04-22T21:13:28.867Z,100395.09
2023-04-22T21:16:10.486Z,100393.50
2023-04-22T21:18:43.861Z,100406.38
2023-04-22T21:21:10.919Z,100388.19
2023-04-22T21:23:40.474Z,100412.69
2023-04-22T21:26:09.774Z,100409.91
2023-04-22T21:28:37.300Z,100411.38
2023-04-22T21:31:04.091Z,100407.72
2023-04-22T21:33:32.782Z,100409.75
2023-04-22T21:35:59.335Z,100415.88
2023-04-22T21:38:29.242Z,100421.72
2023-04-22T21:40:55.763Z,100416.78
2023-04-22T21:43:22.311Z,100416.47
2023-04-22T21:45:48.816Z,100415.97
2023-04-22T21:48:15.617Z,100413.00
2023-04-22T21:50:42.092Z,100415.28
2023-04-22T21:53:08.926Z,100416.97
2023-04-22T21:55:38.865Z,100420.03
2023-04-22T21:58:05.368Z,100421.81
2023-04-22T22:00:32.497Z,100414.41
2023-04-22T22:02:59.018Z,100414.81
2023-04-22T22:05:25.841Z,100423.09
2023-04-22T22:07:55.385Z,100427.66
2023-04-22T22:10:22.559Z,100421.06
2023-04-22T22:12:49.274Z,100410.75
2023-04-22T22:15:16.295Z,100429.38
2023-04-22T22:17:43.682Z,100432.44
2023-04-22T22:20:12.527Z,100433.75
2023-04-22T22:22:43.035Z,100433.03
2023-04-22T22:25:12.129Z,100444.28
2023-04-22T22:27:46.973Z,100437.88
2023-04-22T22:30:13.880Z,100437.91
2023-04-22T22:32:40.711Z,100448.91
2023-04-22T22:35:07.891Z,100449.81
2023-04-22T22:37:35.019Z,100443.88
2023-04-22T22:40:01.760Z,100449.03
2023-04-22T22:42:28.281Z,100457.75
2023-04-22T22:44:55.674Z,100464.03
2023-04-22T22:47:22.182Z,100463.56
2023-04-22T22:49:48.741Z,100464.41
2023-04-22T22:52:15.247Z,100455.97
2023-04-22T22:54:42.182Z,100465.66
2023-04-22T22:57:09.145Z,100463.59
2023-04-22T22:59:37.009Z,100461.91
2023-04-22T23:02:03.958Z,100460.66
2023-04-22T23:04:30.692Z,100461.63
2023-04-22T23:06:57.368Z,100462.19
2023-04-22T23:09:23.866Z,100458.56
2023-04-22T23:11:51.799Z,100463.09
2023-04-22T23:14:19.440Z,100466.09
2023-04-22T23:16:49.058Z,100474.84
2023-04-22T23:19:19.610Z,100463.69
2023-04-22T23:21:46.697Z,100466.53
2023-04-22T23:24:14.757Z,100471.25
2023-04-22T23:26:42.466Z,100462.22
2023-04-22T23:29:09.480Z,100459.88
2023-04-22T23:31:36.362Z,100453.84
2023-04-22T23:34:05.465Z,100459.03
2023-04-22T23:36:36.336Z,100451.59
2023-04-22T23:39:04.280Z,100452.81
2023-04-22T23:41:30.822Z,100447.63
2023-04-22T23:43:57.302Z,100449.66
2023-04-22T23:46:23.876Z,100450.91
2023-04-22T23:48:50.515Z,100445.78
2023-04-22T23:51:17.193Z,100444.25
2023-04-22T23:53:45.354Z,100445.03
2023-04-22T23:56:12.678Z,100445.09
2023-04-22T23:58:39.464Z,100443.06
